Skip to main content

NOAA/GLERL Met Station at Muskegon, MI

Previous 3 Hours (2 minute increments)
See also Previous 5 Days (top of hour)
Jump down to Data
Switch to [English][Metric]
Zoom: Click and drag, Pan: shift-click and drag, Unzoom: double-click, Unzoom All






See also 1-day windrose plot


NOAA/GLERL Met Station at Muskegon, MI

Previous 3 Hours (2 minute increments)
See also Previous 5 Days (top of hour only)
Jump up to Graphs
Switch to [English][Metric]
                  Wind  Wind  Wind   Air   Dew   Rel     Sta   PAR
                   Spd   Gst   Dir  Temp    Pt   Hum    Pres uE/m2/
YYYY-MM-DD   EDT   m/s   m/s   deg     C     C     %      mb   sec
2018-09-26 11:40   9.4  11.0   327  13.6   8.1  69.2  996.50  1454
2018-09-26 11:38   9.7  10.7   322  13.7   8.3  69.5  996.50   822
2018-09-26 11:36  10.6  11.3   338  13.8   7.7  66.3  996.50  1445
2018-09-26 11:34   9.3  10.5   337  13.9   7.7  66.0  996.40  2056
2018-09-26 11:32   9.1  10.5   335  13.8   7.8  66.9  996.50  1745
2018-09-26 11:30   9.2  10.6   331  13.9   7.7  66.0  996.50  1904
2018-09-26 11:28  10.5  11.6   333  13.8   7.9  67.5  996.50  1904
2018-09-26 11:26  10.1  11.2   328  13.8   7.9  67.2  996.50  1941
2018-09-26 11:24  10.2  11.2   329  13.8   8.0  67.6  996.40  1844
2018-09-26 11:22  10.2  10.9   326  13.7   8.2  69.2  996.50  1352
2018-09-26 11:20  10.0  10.9   340  13.8   7.7  66.3  996.50   878
2018-09-26 11:18   9.5  10.7   334  13.9   8.0  67.4  996.40  1471
2018-09-26 11:16   9.5  11.0   331  13.8   8.1  68.2  996.30  1580
2018-09-26 11:14   9.7  11.0   322  13.8   7.7  66.3  996.20  1961
2018-09-26 11:12  10.8  11.6   319  13.9   7.9  66.7  996.30  1880
2018-09-26 11:10   9.8  10.6   328  13.9   7.9  66.8  996.20  1645
2018-09-26 11:08   9.4  10.0   318  13.8   7.9  67.1  996.20  1883
2018-09-26 11:06   9.3  10.8   323  13.8   7.8  66.7  996.20  1903
2018-09-26 11:04   9.0  10.4   319  13.8   7.5  65.4  996.20  1794
2018-09-26 11:02   9.5  10.5   326  14.0   7.8  65.8  996.10  1676
2018-09-26 11:00   9.3  10.5   331  13.9   7.5  65.1  996.10  1921
2018-09-26 10:58   8.8  10.0   328  13.8   7.2  64.3  996.00  1900
2018-09-26 10:56   9.6  10.4   323  13.7   7.5  66.0  996.10  1913
2018-09-26 10:54   9.7  10.6   319  13.6   7.6  66.9  996.10  1748
2018-09-26 10:52  10.0  11.0   323  13.5   7.7  67.5  996.10  1047
2018-09-26 10:50   9.8  10.6   321  13.7   8.4  70.0  996.10   540
2018-09-26 10:48   8.3  10.4   324  13.7   8.7  71.6  995.90  1355
2018-09-26 10:46   8.7   9.4   332  13.6   7.7  67.4  995.90  1298
2018-09-26 10:44   9.4  10.2   334  13.7   8.2  69.2  995.90  1109
2018-09-26 10:42   9.5  10.7   331  13.7   8.3  69.7  995.90  1219
2018-09-26 10:40   9.5  10.1   329  13.6   8.2  69.8  995.90  1931
2018-09-26 10:38   9.4  10.2   326  13.6   8.3  70.0  995.90  1810
2018-09-26 10:36   9.6  10.8   327  13.6   8.3  70.2  995.70  1075
2018-09-26 10:34   9.6  10.7   328  13.6   8.0  68.6  995.70  1878
2018-09-26 10:32   9.9  11.0   326  13.6   8.2  69.7  995.70  1820
2018-09-26 10:30   9.9  11.1   327  13.6   8.3  70.0  995.60  1780
2018-09-26 10:28  10.1  11.2   330  13.5   8.7  72.5  995.50  1778
2018-09-26 10:26  10.0  11.3   329  13.4   8.6  72.6  995.60  1286
2018-09-26 10:24   9.8  11.2   327  13.4   8.6  72.5  995.50   511
2018-09-26 10:22   9.3  11.1   334  13.5   8.6  71.8  995.50  1203
2018-09-26 10:20   9.9  10.9   331  13.5   8.5  71.7  995.50  1460
2018-09-26 10:18   9.6  10.8   336  13.4   8.8  73.6  995.40  1508
2018-09-26 10:16   8.9  10.6   326  13.5   8.8  72.9  995.40   557
2018-09-26 10:14   9.3  11.2   328  13.5   9.2  74.8  995.40  1559
2018-09-26 10:12   9.4  10.3   330  13.5   8.8  73.0  995.40   734
2018-09-26 10:10   9.7  10.9   323  13.5   9.1  74.4  995.40  1511
2018-09-26 10:08  10.1  10.6   325  13.5   8.6  72.2  995.40   555
2018-09-26 10:06  10.6  11.5   322  13.6   8.9  72.8  995.40  1495
2018-09-26 10:04   9.7  10.8   327  13.4   8.6  72.5  995.40  1805
2018-09-26 10:02  10.2  12.0   324  13.4   8.7  73.0  995.40  1727
2018-09-26 10:00  10.4  11.3   328  13.4   8.9  73.8  995.40  1072
2018-09-26 09:58  10.4  11.2   325  13.4   8.9  74.1  995.40   388
2018-09-26 09:56  10.1  11.3   324  13.4   9.1  74.9  995.30   347
2018-09-26 09:54  10.6  11.6   322  13.3   8.8  74.1  995.30   374
2018-09-26 09:52  10.0  10.9   323  13.4   8.9  74.0  995.30   457
2018-09-26 09:50   9.6  10.9   323  13.4   8.8  73.7  995.30   606
2018-09-26 09:48   9.8  10.7   332  13.4   8.7  73.0  995.30   478
2018-09-26 09:46  10.3  11.5   326  13.5   9.0  74.0  995.30  1307
2018-09-26 09:44  10.6  11.5   326  13.5   8.9  73.7  995.30  1809
2018-09-26 09:42   9.9  10.9   324  13.5   8.9  73.6  995.20  1461
2018-09-26 09:40   9.4  10.8   328  13.5   9.1  74.7  995.20   461
2018-09-26 09:38   9.3  11.0   328  13.5   9.6  77.0  995.30   436
2018-09-26 09:36   9.8  11.0   324  13.5   9.5  76.3  995.20   673
2018-09-26 09:34  10.1  11.2   325  13.5   9.2  75.0  995.10  1302
2018-09-26 09:32  10.8  11.7   319  13.6   9.1  73.8  995.10  1629
2018-09-26 09:30   9.7  11.4   327  13.5   9.5  76.5  995.20  1524
2018-09-26 09:28  10.0  11.0   322  13.5   9.0  74.0  995.10   973
2018-09-26 09:26  11.0  12.4   327  13.5   9.4  75.8  995.10  1081
2018-09-26 09:24   9.7  11.2   324  13.4   9.2  75.5  995.10   368
2018-09-26 09:22  10.9  11.7   329  13.5   9.1  74.7  995.10   312
2018-09-26 09:20  11.0  12.3   323  13.6   9.4  75.6  995.10   274
2018-09-26 09:18  11.1  12.4   325  13.6   9.2  74.5  995.00  1052
2018-09-26 09:16  10.6  12.5   324  13.6   9.5  76.2  995.00   919
2018-09-26 09:14  11.0  12.4   328  13.6   8.9  73.2  995.00   458
2018-09-26 09:12  10.8  12.3   328  13.6   8.8  72.7  995.00   959
2018-09-26 09:10  11.1  12.1   329  13.7   9.0  72.8  994.90   641
2018-09-26 09:08  10.8  12.2   326  13.7   9.0  73.2  994.90   484
2018-09-26 09:06  11.3  11.9   326  13.7   9.0  72.8  995.00  1414
2018-09-26 09:04  10.4  11.4   327  13.7   9.1  73.7  995.00   937
2018-09-26 09:02  11.4  12.5   335  13.7   8.6  70.9  994.90  1083
2018-09-26 09:00  11.6  13.0   338  13.6   8.5  70.8  994.90  1223
2018-09-26 08:58  10.3  11.9   334  13.6   8.6  71.5  994.80   462
2018-09-26 08:56  11.2  12.1   336  13.7   8.4  69.9  994.80   684
2018-09-26 08:54  12.2  13.6   336  13.8   8.4  69.7  994.80  1268
2018-09-26 08:52  10.7  12.4   335  13.8   9.0  72.6  994.70  1169
2018-09-26 08:50  11.2  12.3   338  13.7   8.7  71.5  994.60  1030
2018-09-26 08:48  11.8  13.2   330  13.7   8.7  71.7  994.60   437
2018-09-26 08:46  12.0  13.2   335  13.7   8.6  71.2  994.60   299
2018-09-26 08:44  11.7  13.1   339  13.7   8.4  70.2  994.60   695
2018-09-26 08:42  12.5  13.6   338  13.7   8.3  69.5  994.60   259
2018-09-26 08:40  11.9  12.8   337  13.7   8.4  70.1  994.60   249